This is the latest recevied weather packets stored in our database for station/object W5DNT. If no packets are shown the sender has not sent any weather packets the latest 1 day(s).
| Time | Temp. | Humidity | Pressure | Rain* | Wind** | Luminosity | Snow |
|---|---|---|---|---|---|---|---|
| 1836274722 | 25° C | 60% | 1015.1 hPa | 0 mm | 0 m/s | - | - |
| 1778048158 | 19.44° C | 73% | 1007.8 hPa | 0 mm | 0 m/s | - | - |
| 1778047258 | 19.44° C | 73% | 1007.7 hPa | 0 mm | 0 m/s | - | - |
| 1778046351 | 20° C | 72% | 1007.8 hPa | 0 mm | 0 m/s | - | - |
| 1778045449 | 20° C | 72% | 1007.6 hPa | 0 mm | 0 m/s | - | - |
| 1778044547 | 20.56° C | 72% | 1007.6 hPa | 0 mm | 0 m/s | - | - |
| 1778043641 | 21.11° C | 71% | 1007.6 hPa | 0 mm | 0 m/s | - | - |
| 1778042746 | 21.11° C | 71% | 1007.6 hPa | 0 mm | 0 m/s | - | - |
| 1778041840 | 21.67° C | 71% | 1007.5 hPa | 0 mm | 0 m/s | - | - |
| 1778040936 | 22.78° C | 71% | 1007.4 hPa | 0 mm | 0.45 m/s, 340° | - | - |
| 1778040052 | 23.89° C | 71% | 1007.1 hPa | 0 mm | 0 m/s | - | - |
| 1778039145 | 25° C | 72% | 1006.7 hPa | 0 mm | 0 m/s | - | - |
| 1778038233 | 25.56° C | 72% | 1006.5 hPa | 0 mm | 0 m/s | - | - |
| 1778037347 | 25.56° C | 76% | 1005.7 hPa | 0 mm | 0 m/s | - | - |
| 1778036432 | 25.56° C | 72% | 1005.6 hPa | 0 mm | 0 m/s | - | - |
| 1778035532 | 25.56° C | 74% | 1004.7 hPa | 0 mm | 0 m/s | - | - |
| 1778034635 | 25.56° C | 74% | 1004.6 hPa | 0 mm | 0 m/s | - | - |
| 1778033733 | 26.11° C | 73% | 1004.3 hPa | 0 mm | 0 m/s | - | - |
| 1778032830 | 26.11° C | 71% | 1004.2 hPa | 0 mm | 0 m/s | - | - |
| 1778031990 | 26.67° C | 70% | 1003.9 hPa | 0 mm | 0 m/s | - | - |
| 1778031029 | 27.22° C | 69% | 1003.6 hPa | 0 mm | 0 m/s | - | - |
| 1778030129 | 27.78° C | 67% | 1003.5 hPa | 0 mm | 0 m/s | - | - |
| 1778029229 | 28.33° C | 67% | 1003.4 hPa | 0 mm | 0 m/s | - | - |
| 1778028328 | 28.89° C | 66% | 1003.2 hPa | 0 mm | 0 m/s | - | - |
| 1778027427 | 28.89° C | 65% | 1003.4 hPa | 0 mm | 0 m/s | - | - |
* Rain latest hour (hover to see other rain measurements)
** Current wind speed in m/s (hover to see current wind gust speed)